Time;durP1;ratioP1;P1;durP2;ratioP2;P2;SDS_P1;SDS_P2;PMS_P1;PMS_P2;Temp;Humidity;BMP_temperature;BMP_pressure;BME280_temperature;BME280_humidity;BME280_pressure;Samples;Min_cycle;Max_cycle;Signal;HPM_P1;HPM_P2
2023/08/28 00:00:41;;;;;;;10.40;8.80;;;;;;;24.14;68.35;99853.17;107787;1257;73760;-70
2023/08/28 00:03:08;;;;;;;12.90;9.20;;;;;;;24.12;68.33;99856.97;107731;1257;72862;-71
2023/08/28 00:05:36;;;;;;;11.40;10.00;;;;;;;24.13;68.41;99859.41;107649;1257;72756;-71
2023/08/28 00:08:04;;;;;;;11.00;9.10;;;;;;;24.14;68.22;99860.11;107748;1261;61802;-70
2023/08/28 00:10:36;;;;;;;11.10;9.90;;;;;;;24.12;68.18;99862.43;107707;1257;60980;-73
2023/08/28 00:13:04;;;;;;;13.10;9.70;;;;;;;24.10;68.10;99863.25;107770;1257;72742;-72
2023/08/28 00:15:32;;;;;;;12.20;10.00;;;;;;;24.01;68.37;99862.17;107709;1257;72237;-72
2023/08/28 00:17:59;;;;;;;11.20;9.70;;;;;;;24.00;68.27;99867.53;107788;1257;72794;-73
2023/08/28 00:20:27;;;;;;;11.90;10.40;;;;;;;23.98;68.39;99875.14;107659;1258;61765;-72
2023/08/28 00:22:55;;;;;;;10.70;9.60;;;;;;;23.93;68.49;99874.02;107672;1257;60616;-73
2023/08/28 00:25:22;;;;;;;12.20;10.30;;;;;;;23.88;68.54;99872.70;107779;1257;73177;-73
2023/08/28 00:27:50;;;;;;;11.50;9.80;;;;;;;23.87;68.70;99874.64;107798;1258;72735;-73
2023/08/28 00:30:18;;;;;;;11.60;10.40;;;;;;;23.82;68.80;99878.90;107678;1257;72535;-74
2023/08/28 00:32:45;;;;;;;14.50;10.80;;;;;;;23.74;68.85;99885.31;107669;1257;61110;-73
2023/08/28 00:35:13;;;;;;;13.50;10.40;;;;;;;23.73;68.88;99884.83;107679;1259;61141;-72
2023/08/28 00:37:41;;;;;;;11.50;10.30;;;;;;;23.74;69.18;99881.41;107603;1257;74123;-73
2023/08/28 00:40:13;;;;;;;12.10;10.30;;;;;;;23.75;69.04;99880.89;107755;1257;75018;-72
2023/08/28 00:42:40;;;;;;;11.60;9.70;;;;;;;23.75;68.99;99876.98;107646;1257;71809;-72
2023/08/28 00:45:09;;;;;;;10.90;9.90;;;;;;;23.73;69.02;99869.56;107480;1257;61240;-71
2023/08/28 00:47:37;;;;;;;11.60;10.10;;;;;;;23.74;68.99;99874.77;107791;1257;61151;-71
2023/08/28 00:50:05;;;;;;;12.30;9.90;;;;;;;23.71;68.95;99881.82;107769;1262;74627;-72
2023/08/28 00:52:32;;;;;;;12.90;10.30;;;;;;;23.67;68.97;99881.98;107774;1256;72710;-72
2023/08/28 00:55:00;;;;;;;10.70;9.60;;;;;;;23.65;69.02;99882.70;107634;1260;72735;-72
2023/08/28 00:57:28;;;;;;;11.20;10.10;;;;;;;23.64;68.82;99884.40;107701;1257;61274;-72
2023/08/28 00:59:55;;;;;;;11.50;10.10;;;;;;;23.63;68.99;99883.67;107712;1257;61289;-73
2023/08/28 01:02:23;;;;;;;11.90;10.40;;;;;;;23.60;68.80;99881.21;107552;1265;74767;-71
2023/08/28 01:04:52;;;;;;;12.40;11.20;;;;;;;23.53;68.93;99883.88;107631;1258;70863;-72
2023/08/28 01:07:25;;;;;;;13.00;10.80;;;;;;;23.48;69.01;99880.36;107948;1257;72764;-71
2023/08/28 01:10:15;;;;;;;13.30;11.40;;;;;;;23.41;69.16;99880.45;107747;1260;61977;-70
2023/08/28 01:12:50;;;;;;;13.30;11.90;;;;;;;23.33;69.32;99883.73;107772;1257;61016;-71
2023/08/28 01:15:20;;;;;;;21.50;13.30;;;;;;;23.27;69.47;99881.50;108236;1257;74726;-71
2023/08/28 01:17:54;;;;;;;14.00;12.60;;;;;;;23.22;69.63;99882.27;108400;1257;72706;-70
2023/08/28 01:20:24;;;;;;;17.20;13.50;;;;;;;23.14;69.69;99877.27;107914;1258;72128;-70
2023/08/28 01:22:57;;;;;;;15.10;13.50;;;;;;;23.09;70.08;99871.73;107699;1257;61900;-73
2023/08/28 01:25:25;;;;;;;15.20;13.60;;;;;;;23.08;70.18;99874.35;107557;1256;60034;-71
2023/08/28 01:27:53;;;;;;;16.50;14.50;;;;;;;23.02;70.11;99873.30;107766;1258;74812;-69
2023/08/28 01:30:21;;;;;;;16.80;14.80;;;;;;;22.88;70.34;99873.53;107468;1257;71519;-69
2023/08/28 01:32:48;;;;;;;19.10;17.20;;;;;;;22.77;70.62;99877.54;107823;1258;72480;-71
2023/08/28 01:35:20;;;;;;;18.40;16.50;;;;;;;22.67;71.03;99878.58;107610;1262;61680;-71
2023/08/28 01:38:00;;;;;;;19.80;17.80;;;;;;;22.65;71.33;99877.91;107589;1257;59596;-71
2023/08/28 01:40:59;;;;;;;19.60;17.60;;;;;;;22.69;71.45;99878.46;107737;1257;74650;-70
2023/08/28 01:43:42;;;;;;;19.00;17.00;;;;;;;22.71;71.69;99885.04;107617;1262;72796;-70
2023/08/28 01:46:10;;;;;;;20.30;18.20;;;;;;;22.74;71.87;99882.22;107556;1259;72502;-70
2023/08/28 01:48:47;;;;;;;20.30;18.10;;;;;;;22.77;71.91;99884.31;107653;1258;61126;-72
2023/08/28 01:51:16;;;;;;;20.90;18.70;;;;;;;22.79;72.02;99880.55;107835;1257;61120;-71
2023/08/28 01:53:44;;;;;;;19.50;17.50;;;;;;;22.81;71.93;99883.38;107460;1257;74747;-72
2023/08/28 01:56:22;;;;;;;19.20;17.30;;;;;;;22.82;72.05;99884.89;107578;1257;72717;-70
2023/08/28 01:58:56;;;;;;;19.30;16.80;;;;;;;22.82;72.11;99869.73;107604;1257;71070;-70
2023/08/28 02:01:25;;;;;;;19.20;17.20;;;;;;;22.84;72.23;99873.73;107477;1261;61143;-70
2023/08/28 02:03:53;;;;;;;17.80;16.10;;;;;;;22.82;72.40;99875.86;107653;1257;61183;-71
2023/08/28 02:06:20;;;;;;;18.50;16.60;;;;;;;22.84;72.42;99871.34;107581;1257;74601;-73
2023/08/28 02:08:48;;;;;;;18.20;16.30;;;;;;;22.88;72.57;99866.49;107715;1257;73271;-72
2023/08/28 02:11:17;;;;;;;18.40;16.50;;;;;;;22.93;72.58;99871.61;107678;1257;71390;-71
2023/08/28 02:13:45;;;;;;;18.40;16.00;;;;;;;22.97;72.66;99869.36;107791;1259;61769;-72
2023/08/28 02:16:13;;;;;;;18.50;16.70;;;;;;;23.00;72.36;99871.70;107825;1257;61234;-72
2023/08/28 02:18:41;;;;;;;18.10;16.30;;;;;;;23.02;72.40;99877.57;107522;1257;74759;-71
2023/08/28 02:21:10;;;;;;;18.50;16.60;;;;;;;23.01;72.38;99876.16;107646;1259;71682;-73
2023/08/28 02:23:38;;;;;;;19.00;16.50;;;;;;;23.03;72.42;99877.20;107702;1257;74834;-72
2023/08/28 02:26:05;;;;;;;18.60;16.80;;;;;;;23.05;72.35;99872.89;107434;1257;61791;-71
2023/08/28 02:28:33;;;;;;;19.80;15.90;;;;;;;23.07;72.37;99868.65;107645;1257;60309;-72
2023/08/28 02:31:03;;;;;;;18.40;16.60;;;;;;;23.08;72.26;99869.45;107644;1262;73501;-73
2023/08/28 02:33:31;;;;;;;18.90;17.00;;;;;;;23.08;72.26;99865.95;107626;1257;73026;-71
2023/08/28 02:36:01;;;;;;;19.90;17.00;;;;;;;23.09;72.01;99863.77;107810;1259;72727;-71
2023/08/28 02:38:29;;;;;;;18.50;16.60;;;;;;;23.12;71.95;99863.52;107575;1258;61877;-70
2023/08/28 02:41:15;;;;;;;18.70;16.90;;;;;;;23.13;72.08;99869.16;107523;1257;61257;-71
2023/08/28 02:43:43;;;;;;;20.40;18.30;;;;;;;23.16;72.04;99867.49;107415;1262;314357;-68
2023/08/28 02:46:11;;;;;;;19.80;17.70;;;;;;;23.16;72.12;99865.95;107733;1259;72484;-71
2023/08/28 02:48:38;;;;;;;20.80;18.40;;;;;;;23.18;72.10;99864.75;107636;1257;72512;-71
2023/08/28 02:51:06;;;;;;;19.90;17.80;;;;;;;23.21;72.11;99863.02;107453;1257;61106;-71
2023/08/28 02:53:35;;;;;;;21.30;19.00;;;;;;;23.23;72.02;99865.48;107771;1258;61220;-70
2023/08/28 02:56:24;;;;;;;20.10;18.20;;;;;;;23.25;71.97;99862.94;107793;1257;74604;-70
2023/08/28 02:58:53;;;;;;;20.50;18.50;;;;;;;23.26;72.08;99856.80;77576;1258;10002223;-71
2023/08/28 03:01:21;;;;;;;20.40;18.20;;;;;;;23.27;72.09;99858.23;107469;1263;61128;-70
2023/08/28 03:03:49;;;;;;;20.40;18.20;;;;;;;23.26;72.03;99856.02;107542;1257;62647;-70
2023/08/28 03:06:16;;;;;;;20.20;18.00;;;;;;;23.25;72.09;99859.20;107638;1257;73537;-70
2023/08/28 03:08:44;;;;;;;22.20;18.90;;;;;;;23.25;72.21;99865.27;107479;1263;72955;-71
2023/08/28 03:11:12;;;;;;;22.20;19.10;;;;;;;23.25;72.00;99865.58;107485;1257;71573;-71
2023/08/28 03:13:39;;;;;;;20.70;18.60;;;;;;;23.24;72.22;99860.13;108266;1257;62076;-72
2023/08/28 03:16:07;;;;;;;21.90;18.60;;;;;;;23.26;72.17;99854.14;108558;1257;62242;-72
2023/08/28 03:18:35;;;;;;;21.20;19.10;;;;;;;23.26;72.18;99860.55;107587;1257;75548;-71
2023/08/28 03:21:03;;;;;;;21.40;19.20;;;;;;;23.29;72.20;99857.40;107330;1257;71660;-69
2023/08/28 03:23:30;;;;;;;21.00;18.90;;;;;;;23.30;72.18;99854.48;107435;1257;71236;-70
2023/08/28 03:25:59;;;;;;;21.30;19.00;;;;;;;23.28;72.09;99852.41;107591;1257;61741;-71
2023/08/28 03:28:26;;;;;;;19.60;17.60;;;;;;;23.28;72.08;99856.46;107367;1264;61259;-70
2023/08/28 03:30:58;;;;;;;19.40;16.70;;;;;;;23.32;71.99;99854.03;107453;1257;75039;-70
2023/08/28 03:33:25;;;;;;;;;;;;;;;23.34;71.92;99851.05;108027;1257;71455;-71
2023/08/28 03:35:53;;;;;;;18.20;16.20;;;;;;;23.35;71.98;99847.71;108844;1257;73331;-71
2023/08/28 03:38:22;;;;;;;18.20;16.00;;;;;;;23.37;71.93;99845.11;108678;1257;60409;-71
2023/08/28 03:40:49;;;;;;;19.10;16.00;;;;;;;23.40;71.84;99842.11;107662;1263;61443;-71
2023/08/28 03:43:18;;;;;;;19.60;16.50;;;;;;;23.45;71.77;99839.17;107490;1257;74784;-72
2023/08/28 03:45:46;;;;;;;18.40;16.50;;;;;;;23.48;71.75;99838.38;107571;1258;71722;-70
2023/08/28 03:48:13;;;;;;;18.60;16.60;;;;;;;23.51;71.78;99833.38;107646;1257;72782;-71
2023/08/28 03:50:41;;;;;;;18.10;16.00;;;;;;;23.54;71.72;99831.95;107605;1260;61113;-69
2023/08/28 03:53:08;;;;;;;18.00;16.10;;;;;;;23.56;71.54;99835.80;107664;1257;61232;-71
2023/08/28 03:55:37;;;;;;;18.20;16.20;;;;;;;23.61;71.80;99835.02;107507;1259;73481;-70
2023/08/28 03:58:05;;;;;;;18.20;15.90;;;;;;;23.65;71.57;99834.40;108269;1257;71953;-71
2023/08/28 04:00:33;;;;;;;18.00;16.20;;;;;;;23.69;71.63;99833.65;108751;1257;71408;-71
2023/08/28 04:03:00;;;;;;;18.60;16.40;;;;;;;23.73;71.61;99833.32;108658;1257;61755;-71
2023/08/28 04:05:32;;;;;;;18.30;16.40;;;;;;;23.75;71.34;99833.59;107518;1257;61629;-73
2023/08/28 04:08:00;;;;;;;19.60;16.90;;;;;;;23.75;71.35;99831.95;107771;1257;75793;-71
2023/08/28 04:10:28;;;;;;;19.70;17.60;;;;;;;23.72;71.40;99826.84;108033;1257;71421;-71
2023/08/28 04:12:55;;;;;;;20.50;18.40;;;;;;;23.74;71.50;99822.50;107556;1259;72809;-71
2023/08/28 04:15:26;;;;;;;19.90;17.80;;;;;;;23.78;71.38;99823.29;107737;1257;61850;-71
2023/08/28 04:17:53;;;;;;;20.20;17.90;;;;;;;23.86;71.51;99819.68;107756;1262;61127;-71
2023/08/28 04:20:21;;;;;;;20.30;18.10;;;;;;;23.94;71.43;99818.73;107583;1257;73745;-71
2023/08/28 04:22:49;;;;;;;21.20;18.50;;;;;;;23.99;71.24;99816.01;107784;1257;73194;-71
2023/08/28 04:25:16;;;;;;;19.50;17.40;;;;;;;24.06;71.16;99820.02;107665;1258;72819;-71
2023/08/28 04:27:44;;;;;;;20.80;18.70;;;;;;;24.14;71.07;99816.85;107371;1259;62858;-69
2023/08/28 04:30:12;;;;;;;22.00;19.80;;;;;;;24.20;71.12;99816.31;107794;1259;61535;-71
2023/08/28 04:32:39;;;;;;;21.70;19.40;;;;;;;24.26;71.05;99813.55;108144;1259;74858;-70
2023/08/28 04:35:07;;;;;;;21.90;19.70;;;;;;;24.35;70.98;99815.76;108758;1257;71702;-71
2023/08/28 04:37:35;;;;;;;21.20;19.00;;;;;;;24.39;70.91;99817.77;108785;1257;72419;-71
2023/08/28 04:40:03;;;;;;;21.50;19.20;;;;;;;24.45;70.86;99816.65;108123;1257;62336;-71
2023/08/28 04:42:30;;;;;;;22.40;20.10;;;;;;;24.52;70.86;99813.63;107659;1260;61099;-71
2023/08/28 04:44:58;;;;;;;23.60;21.20;;;;;;;24.61;70.77;99812.73;107607;1262;73405;-70
2023/08/28 04:47:26;;;;;;;23.30;20.90;;;;;;;24.74;70.72;99816.33;107610;1257;73111;-70
2023/08/28 04:49:54;;;;;;;22.60;20.40;;;;;;;24.89;70.67;99811.13;107618;1257;72701;-71
2023/08/28 04:52:22;;;;;;;23.20;20.70;;;;;;;25.08;70.68;99814.48;107581;1257;61932;-70
2023/08/28 04:54:49;;;;;;;24.80;22.10;;;;;;;25.26;70.43;99814.62;107429;1257;61084;-70
2023/08/28 04:57:17;;;;;;;23.30;20.80;;;;;;;25.43;70.11;99810.03;107681;1256;75096;-71
2023/08/28 04:59:45;;;;;;;24.70;22.10;;;;;;;25.60;69.88;99810.75;108653;1259;72025;-71
2023/08/28 05:02:12;;;;;;;23.90;21.30;;;;;;;25.78;69.52;99812.25;108294;1257;71082;-71
2023/08/28 05:04:40;;;;;;;24.10;21.80;;;;;;;25.96;69.37;99808.58;107327;1259;61792;-71
2023/08/28 05:07:08;;;;;;;24.10;21.50;;;;;;;26.15;69.01;99805.90;107513;1257;61209;-71
2023/08/28 05:09:35;;;;;;;25.00;22.30;;;;;;;26.32;68.70;99799.44;107444;1257;74736;-71
2023/08/28 05:12:03;;;;;;;24.10;21.40;;;;;;;26.48;68.35;99802.92;107471;1257;73102;-70
2023/08/28 05:14:32;;;;;;;23.90;21.40;;;;;;;26.65;68.02;99800.60;108135;1258;71384;-70
2023/08/28 05:16:59;;;;;;;23.70;21.30;;;;;;;26.82;67.57;99801.39;107924;1257;61099;-71
2023/08/28 05:19:27;;;;;;;22.70;20.00;;;;;;;26.97;67.06;99791.17;108733;1257;60247;-71
2023/08/28 05:21:55;;;;;;;22.40;20.00;;;;;;;27.10;66.48;99790.90;108731;1257;74739;-71
2023/08/28 05:24:23;;;;;;;22.00;19.70;;;;;;;27.23;66.09;99791.52;108833;1258;71587;-72
2023/08/28 05:26:50;;;;;;;21.80;19.50;;;;;;;27.37;65.63;99794.36;107631;1257;71351;-71
2023/08/28 05:29:18;;;;;;;21.80;19.50;;;;;;;27.50;65.30;99791.23;107373;1263;61068;-70
2023/08/28 05:31:46;;;;;;;22.20;19.80;;;;;;;27.64;64.49;99794.63;107911;1257;61096;-71
2023/08/28 05:34:15;;;;;;;21.80;18.40;;;;;;;27.80;63.72;99793.64;107698;1257;74746;-70
2023/08/28 05:36:42;;;;;;;21.40;19.10;;;;;;;27.92;62.78;99794.98;107542;1257;72724;-70
2023/08/28 05:39:10;;;;;;;20.40;18.10;;;;;;;28.02;62.16;99793.39;107434;1259;72977;-72
2023/08/28 05:41:38;;;;;;;19.50;17.50;;;;;;;28.13;61.58;99798.95;107385;1262;61126;-71
2023/08/28 05:44:06;;;;;;;19.50;17.40;;;;;;;28.20;60.83;99802.94;107562;1257;61097;-71
2023/08/28 05:46:36;;;;;;;18.60;16.70;;;;;;;28.25;60.45;99802.92;108502;1257;76985;-72
2023/08/28 05:49:03;;;;;;;19.80;17.70;;;;;;;28.30;60.24;99799.08;108769;1257;63400;-72
2023/08/28 05:51:31;;;;;;;18.90;17.10;;;;;;;28.35;60.04;99797.26;107971;1258;62434;-72
2023/08/28 05:53:59;;;;;;;19.30;17.20;;;;;;;28.37;59.99;99799.21;107705;1259;61342;-72
2023/08/28 05:56:26;;;;;;;19.90;16.80;;;;;;;28.40;59.46;99797.04;107343;1257;63163;-72
2023/08/28 05:58:54;;;;;;;19.40;16.00;;;;;;;28.43;59.14;99795.23;107929;1257;66029;-71
2023/08/28 06:01:21;;;;;;;16.70;14.90;;;;;;;28.46;58.48;99793.27;108819;1257;64452;-72
2023/08/28 06:03:55;;;;;;;18.50;16.40;;;;;;;28.50;58.20;99789.88;107782;1257;63903;-71
2023/08/28 06:06:23;;;;;;;17.70;15.90;;;;;;;28.55;57.80;99788.83;107474;1257;61659;-70
2023/08/28 06:08:51;;;;;;;17.80;15.90;;;;;;;28.62;57.32;99790.92;107663;1262;59760;-70
2023/08/28 06:11:19;;;;;;;16.40;14.70;;;;;;;28.70;57.05;99787.13;107470;1257;66191;-71
2023/08/28 06:13:50;;;;;;;17.60;15.70;;;;;;;28.77;56.44;99782.55;107389;1257;64172;-70
2023/08/28 06:16:18;;;;;;;17.50;15.00;;;;;;;28.81;56.12;99785.98;107532;1262;62807;-72
2023/08/28 06:18:46;;;;;;;15.80;14.00;;;;;;;28.86;55.81;99787.77;107368;1257;61295;-73
2023/08/28 06:21:13;;;;;;;15.60;14.00;;;;;;;28.94;55.67;99784.42;108499;1257;59521;-71
2023/08/28 06:23:41;;;;;;;15.30;13.90;;;;;;;29.06;55.20;99787.23;108818;1257;77168;-70
2023/08/28 06:26:08;;;;;;;15.40;13.80;;;;;;;29.13;54.52;99789.16;108689;1258;62669;-71
2023/08/28 06:28:36;;;;;;;14.50;13.00;;;;;;;29.20;53.76;99787.23;108382;1258;62470;-71
2023/08/28 06:31:04;;;;;;;14.70;12.80;;;;;;;29.28;52.95;99786.48;107412;1258;61121;-71
2023/08/28 06:33:31;;;;;;;14.40;12.90;;;;;;;29.37;52.51;99793.25;108431;1260;59210;-70
2023/08/28 06:35:59;;;;;;;14.70;13.20;;;;;;;29.48;52.29;99790.34;107817;1260;66295;-70
2023/08/28 06:38:27;;;;;;;14.90;13.40;;;;;;;29.59;51.89;99791.54;107490;1257;63847;-70
2023/08/28 06:40:55;;;;;;;15.20;13.40;;;;;;;29.71;51.53;99787.92;107585;1259;65908;-70
2023/08/28 06:43:23;;;;;;;14.50;13.00;;;;;;;29.83;50.85;99784.60;107831;1257;61075;-71
2023/08/28 06:45:51;;;;;;;13.80;12.10;;;;;;;29.92;50.65;99785.54;107621;1257;61155;-71
2023/08/28 06:48:18;;;;;;;13.90;12.50;;;;;;;30.04;50.04;99788.18;107767;1257;66216;-70
2023/08/28 06:50:46;;;;;;;14.10;11.70;;;;;;;30.17;49.81;99789.25;108808;1257;63833;-71
2023/08/28 06:53:13;;;;;;;13.30;10.90;;;;;;;30.31;48.63;99788.95;108753;1257;64877;-71
2023/08/28 06:55:41;;;;;;;11.80;10.60;;;;;;;30.42;48.15;99786.17;108709;1256;60045;-71
2023/08/28 06:58:08;;;;;;;12.50;11.20;;;;;;;30.49;47.78;99789.23;107416;1257;61688;-71
2023/08/28 07:00:36;;;;;;;14.10;12.00;;;;;;;30.51;47.55;99786.85;107716;1260;65873;-70
2023/08/28 07:03:04;;;;;;;13.60;11.30;;;;;;;30.51;47.83;99785.75;107767;1262;64045;-72
2023/08/28 07:05:32;;;;;;;12.60;11.30;;;;;;;30.52;47.65;99785.64;107620;1259;63937;-72
2023/08/28 07:08:00;;;;;;;14.20;11.90;;;;;;;30.52;47.74;99786.44;107659;1257;61115;-71
2023/08/28 07:10:27;;;;;;;12.40;11.20;;;;;;;30.54;48.46;99785.55;107485;1257;61141;-71
2023/08/28 07:12:55;;;;;;;13.70;12.10;;;;;;;30.62;48.69;99784.98;107497;1257;66175;-71
2023/08/28 07:15:25;;;;;;;13.50;12.10;;;;;;;30.72;48.78;99783.70;108103;1257;63787;-71
2023/08/28 07:17:53;;;;;;;15.10;12.70;;;;;;;30.84;48.74;99784.52;107583;1259;63749;-71
2023/08/28 07:20:23;;;;;;;14.40;12.20;;;;;;;30.95;48.60;99786.25;108067;1257;61122;-72
2023/08/28 07:22:53;;;;;;;14.80;12.30;;;;;;;31.12;48.16;99788.71;107426;1263;61127;-72
2023/08/28 07:25:27;;;;;;;12.80;11.50;;;;;;;31.23;47.27;99788.23;107634;1257;68088;-73
2023/08/28 07:27:55;;;;;;;13.20;11.40;;;;;;;31.32;46.75;99787.63;107518;1257;64016;-73
2023/08/28 07:30:23;;;;;;;12.50;11.00;;;;;;;31.42;45.90;99789.00;107456;1258;64370;-72
2023/08/28 07:32:52;;;;;;;12.20;10.90;;;;;;;31.50;45.59;99781.48;107552;1257;61126;-72
2023/08/28 07:35:19;;;;;;;11.00;10.00;;;;;;;31.57;45.48;99780.34;107682;1258;61241;-73
2023/08/28 07:37:47;;;;;;;10.70;9.70;;;;;;;31.66;44.82;99778.77;107592;1257;74632;-72
2023/08/28 07:40:14;;;;;;;12.20;10.50;;;;;;;31.72;44.45;99776.39;107493;1258;62728;-73
2023/08/28 07:42:42;;;;;;;11.80;10.30;;;;;;;31.72;44.98;99774.00;107542;1258;74124;-72
2023/08/28 07:45:10;;;;;;;12.50;11.20;;;;;;;31.82;44.81;99775.89;107534;1258;59620;-73
2023/08/28 07:47:38;;;;;;;11.60;10.40;;;;;;;31.93;44.46;99778.33;107497;1257;59752;-72
2023/08/28 07:50:06;;;;;;;11.30;9.90;;;;;;;32.07;44.08;99778.40;107556;1257;65859;-71
2023/08/28 07:52:34;;;;;;;12.60;9.60;;;;;;;32.24;43.42;99773.90;107554;1258;66499;-71
2023/08/28 07:55:01;;;;;;;10.70;9.30;;;;;;;32.38;42.90;99770.39;107512;1259;62737;-71
2023/08/28 07:57:34;;;;;;;10.30;9.10;;;;;;;32.54;42.61;99768.21;107424;1259;61197;-71
2023/08/28 08:00:10;;;;;;;10.90;9.40;;;;;;;32.72;41.80;99768.02;107587;1257;60532;-71
2023/08/28 08:02:41;;;;;;;11.20;9.30;;;;;;;32.87;41.52;99759.77;107374;1263;67899;-72
2023/08/28 08:05:10;;;;;;;9.10;8.20;;;;;;;33.05;41.82;99755.70;107420;1259;62537;-71
2023/08/28 08:07:41;;;;;;;9.90;8.70;;;;;;;33.21;41.60;99751.14;107572;1257;62647;-71
2023/08/28 08:10:10;;;;;;;9.00;8.10;;;;;;;33.36;41.27;99749.68;107529;1258;61180;-72
2023/08/28 08:12:38;;;;;;;9.40;8.10;;;;;;;33.45;40.98;99748.66;107632;1257;60938;-76
2023/08/28 08:15:06;;;;;;;10.80;8.80;;;;;;;33.54;40.83;99745.06;107451;1257;67959;-72
2023/08/28 08:17:36;;;;;;;9.80;8.10;;;;;;;33.64;40.42;99743.30;107565;1257;63147;-72
2023/08/28 08:20:09;;;;;;;9.40;8.40;;;;;;;33.77;40.11;99742.65;107619;1259;63840;-73
2023/08/28 08:22:38;;;;;;;12.70;9.30;;;;;;;33.88;40.15;99744.74;107656;1259;59927;-72
2023/08/28 08:25:06;;;;;;;9.90;9.00;;;;;;;33.96;40.20;99750.46;107552;1258;59833;-72
2023/08/28 08:27:34;;;;;;;9.90;8.70;;;;;;;33.98;39.96;99752.49;107516;1257;65865;-72
2023/08/28 08:30:02;;;;;;;11.10;9.10;;;;;;;33.97;39.56;99755.77;107469;1257;66277;-72
2023/08/28 08:32:30;;;;;;;9.70;8.80;;;;;;;33.93;39.51;99760.21;107524;1257;63927;-72
2023/08/28 08:34:59;;;;;;;10.00;8.50;;;;;;;33.93;39.82;99761.40;107584;1259;60606;-72
2023/08/28 08:37:28;;;;;;;10.30;8.90;;;;;;;33.98;39.91;99760.09;107454;1257;61122;-72
2023/08/28 08:39:55;;;;;;;10.90;8.80;;;;;;;34.07;39.55;99754.89;107514;1257;64543;-73
2023/08/28 08:42:23;;;;;;;10.40;9.30;;;;;;;34.17;39.78;99751.14;107429;1257;63696;-71
2023/08/28 08:44:50;;;;;;;11.50;9.30;;;;;;;34.29;39.43;99749.67;107509;1258;63808;-72
2023/08/28 08:47:18;;;;;;;12.20;9.20;;;;;;;34.47;38.65;99750.12;107537;1260;60038;-71
2023/08/28 08:49:46;;;;;;;10.00;9.00;;;;;;;34.60;38.56;99745.58;107560;1258;62244;-71
2023/08/28 08:52:15;;;;;;;10.00;8.90;;;;;;;34.69;38.06;99743.58;107505;1257;66974;-71
2023/08/28 08:54:43;;;;;;;10.20;8.40;;;;;;;34.79;37.93;99740.20;107562;1259;62526;-72
2023/08/28 08:57:22;;;;;;;10.00;8.10;;;;;;;34.86;37.28;99736.00;107580;1260;63870;-71
2023/08/28 08:59:50;;;;;;;10.00;7.80;;;;;;;34.93;36.53;99735.40;107570;1262;60117;-71
2023/08/28 09:02:18;;;;;;;8.80;7.60;;;;;;;34.90;36.62;99736.77;107309;1259;63158;-72
2023/08/28 09:04:45;;;;;;;11.60;8.60;;;;;;;34.89;37.15;99735.36;107532;1264;65173;-71
2023/08/28 09:07:13;;;;;;;8.30;7.50;;;;;;;34.96;37.34;99733.41;107516;1257;62771;-71
2023/08/28 09:09:41;;;;;;;10.50;9.30;;;;;;;34.98;37.36;99733.17;107405;1258;62896;-73
2023/08/28 09:12:08;;;;;;;10.80;7.90;;;;;;;34.99;37.21;99735.45;107529;1257;61098;-72
2023/08/28 09:14:36;;;;;;;14.00;9.20;;;;;;;35.04;36.95;99738.73;107534;1259;61259;-71
2023/08/28 09:17:07;;;;;;;9.80;7.70;;;;;;;35.11;36.18;99740.71;107352;1262;66738;-71
2023/08/28 09:19:34;;;;;;;12.20;8.50;;;;;;;35.16;35.50;99739.45;107464;1258;64018;-72
2023/08/28 09:22:03;;;;;;;9.10;7.40;;;;;;;35.22;35.98;99743.30;107416;1258;63404;-72
2023/08/28 09:24:31;;;;;;;10.00;7.30;;;;;;;35.32;35.41;99743.86;107574;1259;61336;-72
2023/08/28 09:26:59;;;;;;;7.90;6.40;;;;;;;35.39;34.46;99742.84;107556;1257;61238;-72
2023/08/28 09:29:27;;;;;;;8.60;6.20;;;;;;;35.48;33.57;99745.56;107572;1263;76931;-73
2023/08/28 09:32:04;;;;;;;6.80;5.70;;;;;;;35.57;32.34;99748.08;107586;1257;64007;-72
2023/08/28 09:34:39;;;;;;;8.40;6.40;;;;;;;35.60;31.61;99747.02;107967;1258;63806;-72
2023/08/28 09:37:10;;;;;;;10.70;7.50;;;;;;;35.66;32.25;99746.34;107528;1259;61359;-72
2023/08/28 09:39:39;;;;;;;13.20;7.70;;;;;;;35.66;33.21;99741.56;107630;1257;61082;-73
2023/08/28 09:42:08;;;;;;;8.90;6.40;;;;;;;35.63;33.56;99742.06;107382;1257;65305;-73
2023/08/28 09:44:37;;;;;;;7.90;7.10;;;;;;;35.64;33.18;99742.60;107367;1263;71179;-73
2023/08/28 09:47:05;;;;;;;8.40;6.40;;;;;;;35.62;33.07;99738.16;107409;1260;63903;-73
2023/08/28 09:49:42;;;;;;;7.50;6.60;;;;;;;35.62;32.70;99734.17;107377;1259;61247;-72
2023/08/28 09:52:10;;;;;;;8.60;6.80;;;;;;;35.70;32.22;99734.95;107664;1258;60052;-73
2023/08/28 09:54:39;;;;;;;10.80;7.30;;;;;;;35.75;31.07;99738.11;107482;1260;65799;-73
2023/08/28 09:57:16;;;;;;;8.90;6.30;;;;;;;35.77;31.01;99739.55;107435;1262;63813;-73
2023/08/28 09:59:44;;;;;;;10.70;6.60;;;;;;;35.83;31.88;99736.55;107489;1259;62530;-73
2023/08/28 10:02:11;;;;;;;10.80;6.70;;;;;;;35.92;31.83;99736.71;107514;1259;61090;-73
2023/08/28 10:04:52;;;;;;;11.40;7.30;;;;;;;35.99;31.54;99734.73;107524;1257;61237;-73
2023/08/28 10:07:21;;;;;;;11.00;7.30;;;;;;;36.08;31.28;99731.16;107519;1258;66056;-73
2023/08/28 10:09:51;;;;;;;11.50;6.80;;;;;;;36.16;31.06;99728.98;107618;1259;62661;-71
2023/08/28 10:12:20;;;;;;;10.10;6.70;;;;;;;36.20;30.99;99729.70;107504;1259;63998;-73
2023/08/28 10:14:49;;;;;;;10.20;6.60;;;;;;;36.26;31.22;99730.94;107582;1259;61184;-71
2023/08/28 10:17:17;;;;;;;10.90;6.60;;;;;;;36.32;31.08;99726.10;107361;1259;61157;-71
2023/08/28 10:19:54;;;;;;;8.80;6.70;;;;;;;36.36;30.01;99721.80;107387;1260;66028;-71
2023/08/28 10:22:22;;;;;;;8.50;6.60;;;;;;;36.30;29.98;99724.19;107427;1257;62854;-70
2023/08/28 10:24:50;;;;;;;10.10;7.10;;;;;;;36.19;30.32;99723.30;107430;1260;67383;-71
2023/08/28 10:27:17;;;;;;;9.50;6.90;;;;;;;36.17;30.68;99722.75;107397;1259;61228;-69
2023/08/28 10:29:46;;;;;;;8.90;5.90;;;;;;;36.26;30.54;99724.95;107206;1259;61128;-69
2023/08/28 10:32:14;;;;;;;11.00;6.60;;;;;;;36.34;30.19;99729.98;107355;1259;65810;-70
2023/08/28 10:34:44;;;;;;;8.70;6.20;;;;;;;36.31;29.97;99726.67;107387;1259;62970;-69
2023/08/28 10:37:13;;;;;;;;;;;;;;;36.25;29.59;99731.20;107405;1260;74771;-70
2023/08/28 10:39:58;;;;;;;10.30;5.60;;;;;;;36.17;29.20;99730.61;107236;1256;61111;-70
2023/08/28 10:42:26;;;;;;;;;;;;;;;36.08;29.96;99727.05;107572;1259;61304;-70
2023/08/28 10:44:55;;;;;;;8.20;5.70;;;;;;;36.03;30.15;99727.48;107526;1259;66010;-70
2023/08/28 10:47:25;;;;;;;7.50;5.70;;;;;;;36.05;30.10;99724.84;107460;1258;62853;-71
2023/08/28 10:49:55;;;;;;;8.10;5.70;;;;;;;36.10;29.94;99723.95;108078;1262;64465;-71
2023/08/28 10:52:23;;;;;;;6.50;5.30;;;;;;;36.12;30.49;99724.58;107958;1257;59354;-72
2023/08/28 10:54:51;;;;;;;7.90;6.10;;;;;;;36.15;30.33;99716.78;107849;1262;61154;-71
2023/08/28 10:57:39;;;;;;;7.40;5.00;;;;;;;36.20;30.00;99711.75;92982;1260;20002289;-71
2023/08/28 11:00:14;;;;;;;9.70;6.00;;;;;;;36.23;29.97;99707.75;101269;1259;10002083;-71
2023/08/28 11:03:02;;;;;;;8.90;5.80;;;;;;;36.31;30.46;99706.51;108684;1257;62562;-71
2023/08/28 11:05:30;;;;;;;7.60;5.70;;;;;;;36.47;30.37;99701.43;108312;1260;63076;-71
2023/08/28 11:08:03;;;;;;;8.80;6.70;;;;;;;36.66;30.53;99695.65;107492;1260;61346;-71
2023/08/28 11:10:31;;;;;;;9.80;6.20;;;;;;;36.83;30.75;99694.92;107668;1258;61180;-71
2023/08/28 11:13:06;;;;;;;8.30;6.60;;;;;;;36.94;29.96;99696.69;108056;1262;76864;-71
2023/08/28 11:15:43;;;;;;;7.80;6.30;;;;;;;36.93;30.40;99697.05;107467;1257;74080;-70
2023/08/28 11:18:24;;;;;;;8.40;5.80;;;;;;;36.94;30.64;99695.12;107461;1259;63825;-71
2023/08/28 11:21:03;;;;;;;7.40;5.90;;;;;;;37.00;30.25;99690.77;107620;1259;61296;-69
2023/08/28 11:23:36;;;;;;;8.80;5.60;;;;;;;37.05;29.82;99693.04;107795;1257;60001;-69